createdAt,value
2019-06-15T00:00:28.569Z,33.73
2019-06-15T00:02:57.173Z,30.47
2019-06-15T00:05:25.715Z,30.33
2019-06-15T00:07:54.367Z,26.20
2019-06-15T00:10:22.991Z,30.37
2019-06-15T00:12:51.575Z,27.40
2019-06-15T00:15:20.207Z,28.37
2019-06-15T00:17:48.872Z,30.83
2019-06-15T00:20:17.576Z,37.93
2019-06-15T00:22:46.228Z,35.80
2019-06-15T00:25:15.132Z,29.03
2019-06-15T00:27:43.787Z,36.77
2019-06-15T00:30:14.037Z,36.28
2019-06-15T00:32:42.691Z,26.00
2019-06-15T00:35:11.627Z,29.73
2019-06-15T00:37:40.172Z,38.03
2019-06-15T00:40:09.996Z,29.70
2019-06-15T00:42:38.585Z,30.83
2019-06-15T00:45:07.316Z,23.93
2019-06-15T00:47:35.942Z,26.60
2019-06-15T00:50:05.672Z,27.73
2019-06-15T00:52:34.331Z,26.67
2019-06-15T00:55:02.987Z,29.43
2019-06-15T00:57:31.702Z,24.60
2019-06-15T01:00:00.267Z,24.93
2019-06-15T01:02:28.848Z,25.83
2019-06-15T01:04:57.432Z,21.90
2019-06-15T01:07:25.997Z,21.70
2019-06-15T01:09:54.585Z,26.90
2019-06-15T01:12:23.648Z,30.83
2019-06-15T01:14:52.237Z,28.30
2019-06-15T01:17:20.800Z,26.93
2019-06-15T01:19:49.379Z,30.63
2019-06-15T01:22:18.075Z,38.03
2019-06-15T01:24:46.658Z,27.87
2019-06-15T01:27:15.212Z,33.40
2019-06-15T01:29:43.936Z,31.63
2019-06-15T01:32:12.556Z,33.33
2019-06-15T01:34:41.187Z,31.43
2019-06-15T01:37:09.888Z,25.30
2019-06-15T01:39:38.473Z,33.00
2019-06-15T01:42:07.168Z,33.43
2019-06-15T01:44:35.753Z,31.47
2019-06-15T01:47:04.453Z,30.57
2019-06-15T01:49:33.044Z,36.73
2019-06-15T01:52:01.674Z,37.70
2019-06-15T01:54:30.251Z,26.60
2019-06-15T01:56:58.810Z,33.17
2019-06-15T01:59:27.393Z,32.53
2019-06-15T02:01:55.949Z,30.90
2019-06-15T02:04:24.533Z,34.47
2019-06-15T02:06:53.099Z,32.57
2019-06-15T02:09:21.663Z,35.03
2019-06-15T02:11:50.242Z,33.30
2019-06-15T02:14:18.941Z,29.93
2019-06-15T02:16:47.602Z,27.90
2019-06-15T02:19:16.223Z,25.07
2019-06-15T02:21:44.848Z,27.73
2019-06-15T02:24:13.429Z,24.00
2019-06-15T02:26:42.022Z,26.20
2019-06-15T02:29:10.610Z,24.07
2019-06-15T02:31:39.233Z,18.83
2019-06-15T02:34:07.878Z,13.73
2019-06-15T02:36:36.472Z,16.57
2019-06-15T02:39:07.491Z,14.70
2019-06-15T02:41:36.187Z,16.30
2019-06-15T02:44:05.818Z,14.37
2019-06-15T02:46:34.460Z,17.30
2019-06-15T02:49:03.121Z,8.70
2019-06-15T02:51:31.818Z,10.90
2019-06-15T02:54:00.471Z,8.43
2019-06-15T02:56:29.125Z,9.40
2019-06-15T02:58:57.777Z,12.37
2019-06-15T03:01:26.505Z,9.30
2019-06-15T03:03:55.117Z,12.60
2019-06-15T03:06:23.840Z,9.70
2019-06-15T03:08:53.265Z,8.00
2019-06-15T03:11:22.162Z,16.40
2019-06-15T03:13:50.748Z,13.47
2019-06-15T03:16:19.335Z,13.20
2019-06-15T03:18:47.912Z,14.53
2019-06-15T03:21:16.469Z,13.70
2019-06-15T03:23:45.044Z,11.43
2019-06-15T03:26:13.624Z,11.08
2019-06-15T03:28:42.188Z,14.63
2019-06-15T03:31:10.776Z,9.40
2019-06-15T03:33:39.323Z,11.40
2019-06-15T03:36:07.985Z,9.73
2019-06-15T03:38:36.526Z,17.57
2019-06-15T03:41:05.177Z,10.20
2019-06-15T03:43:33.741Z,11.50
2019-06-15T03:46:02.331Z,12.07
2019-06-15T03:48:30.885Z,20.80
2019-06-15T03:50:59.461Z,11.13
2019-06-15T03:53:28.017Z,12.03
2019-06-15T03:55:56.631Z,12.70
2019-06-15T03:58:25.220Z,14.57
2019-06-15T04:01:11.561Z,20.23
2019-06-15T04:03:40.133Z,11.63
2019-06-15T04:06:08.685Z,8.37
2019-06-15T04:08:37.269Z,15.43
2019-06-15T04:11:05.863Z,15.40
2019-06-15T04:13:34.432Z,8.00
2019-06-15T04:16:03.010Z,13.20
2019-06-15T04:18:31.653Z,16.67
2019-06-15T04:21:00.241Z,14.43
2019-06-15T04:23:28.819Z,16.17
2019-06-15T04:25:57.447Z,9.80
2019-06-15T04:28:26.020Z,9.63
2019-06-15T04:30:54.609Z,11.83
2019-06-15T04:33:23.188Z,7.10
2019-06-15T04:35:51.742Z,14.97
2019-06-15T04:38:20.324Z,5.70
2019-06-15T04:40:48.873Z,8.73
2019-06-15T04:43:17.452Z,15.83
2019-06-15T04:45:46.010Z,11.80
2019-06-15T04:48:14.652Z,9.77
2019-06-15T04:50:43.215Z,6.87
2019-06-15T04:53:14.738Z,6.77
2019-06-15T04:55:42.065Z,13.18
2019-06-15T04:58:10.721Z,10.90
2019-06-15T05:00:39.281Z,2.60
2019-06-15T05:03:07.925Z,6.40
2019-06-15T05:05:36.552Z,3.13
2019-06-15T05:08:05.228Z,5.13
2019-06-15T05:10:33.826Z,13.87
2019-06-15T05:13:02.368Z,6.20
2019-06-15T05:15:30.957Z,3.43
2019-06-15T05:17:59.737Z,3.20
2019-06-15T05:20:28.394Z,3.50
2019-06-15T05:22:56.941Z,2.47
2019-06-15T05:25:25.518Z,5.40
2019-06-15T05:27:54.132Z,4.40
2019-06-15T05:30:22.708Z,3.20
2019-06-15T05:32:51.257Z,3.00
2019-06-15T05:35:19.922Z,4.33
2019-06-15T05:37:48.460Z,3.77
2019-06-15T05:40:17.221Z,2.20
2019-06-15T05:42:45.768Z,2.43
2019-06-15T05:45:15.585Z,4.50
2019-06-15T05:47:44.201Z,3.50
2019-06-15T05:50:12.927Z,4.10
2019-06-15T05:52:41.480Z,2.73
2019-06-15T05:55:10.789Z,3.37
2019-06-15T05:57:39.339Z,1.97
2019-06-15T06:00:10.602Z,5.10
2019-06-15T06:02:39.219Z,2.40
2019-06-15T06:05:08.427Z,3.10
2019-06-15T06:07:36.983Z,3.60
2019-06-15T06:10:10.630Z,3.07
2019-06-15T06:12:37.894Z,3.73
2019-06-15T06:15:07.185Z,3.23
2019-06-15T06:17:35.769Z,2.83
2019-06-15T06:20:06.966Z,7.50
2019-06-15T06:22:35.613Z,5.23
2019-06-15T06:25:07.205Z,2.13
2019-06-15T06:27:36.736Z,5.67
2019-06-15T06:30:10.932Z,3.10
2019-06-15T06:32:39.566Z,2.33
2019-06-15T06:35:09.784Z,4.70
2019-06-15T06:37:38.342Z,4.80
2019-06-15T06:40:11.252Z,3.87
2019-06-15T06:42:39.820Z,6.50
2019-06-15T06:45:10.152Z,2.93
2019-06-15T06:47:38.755Z,2.13
2019-06-15T06:50:08.772Z,2.80
2019-06-15T06:52:37.433Z,5.93
2019-06-15T06:55:07.958Z,3.93
2019-06-15T06:57:50.778Z,3.97
2019-06-15T07:00:08.503Z,3.47
2019-06-15T07:02:37.222Z,2.07
2019-06-15T07:05:07.037Z,2.53
2019-06-15T07:07:35.655Z,4.50
2019-06-15T07:10:06.517Z,4.03
2019-06-15T07:12:35.248Z,2.57
2019-06-15T07:15:04.979Z,5.00
2019-06-15T07:17:33.968Z,3.60
2019-06-15T07:20:02.665Z,2.70
2019-06-15T07:22:31.475Z,10.73
2019-06-15T07:25:00.057Z,3.20
2019-06-15T07:27:28.708Z,6.60
2019-06-15T07:29:57.291Z,3.70
2019-06-15T07:32:25.842Z,4.50
2019-06-15T07:34:54.488Z,2.67
2019-06-15T07:37:23.061Z,7.00
2019-06-15T07:39:51.641Z,3.63
2019-06-15T07:42:20.260Z,2.20
2019-06-15T07:44:48.845Z,4.23
2019-06-15T07:47:17.425Z,2.87
2019-06-15T07:49:46.000Z,2.30
2019-06-15T07:52:14.558Z,2.97
2019-06-15T07:54:43.143Z,3.40
2019-06-15T07:57:11.723Z,2.00
2019-06-15T07:59:40.311Z,3.20
2019-06-15T08:02:09.127Z,2.67
2019-06-15T08:04:37.800Z,3.30
2019-06-15T08:07:07.853Z,2.40
2019-06-15T08:09:36.418Z,2.03
2019-06-15T08:12:05.536Z,3.50
2019-06-15T08:14:34.086Z,2.87
2019-06-15T08:17:02.656Z,2.03
2019-06-15T08:19:31.308Z,2.40
2019-06-15T08:21:59.954Z,2.70
2019-06-15T08:24:28.611Z,4.50
2019-06-15T08:26:57.177Z,3.63
2019-06-15T08:29:25.741Z,3.33
2019-06-15T08:31:54.327Z,4.80
2019-06-15T08:34:22.910Z,2.17
2019-06-15T08:36:51.462Z,2.33
2019-06-15T08:39:20.095Z,3.53
2019-06-15T08:41:48.612Z,3.90
2019-06-15T08:44:17.193Z,2.50
2019-06-15T08:46:45.757Z,2.10
2019-06-15T08:49:14.342Z,4.90
2019-06-15T08:51:42.921Z,3.13
2019-06-15T08:54:11.497Z,2.90
2019-06-15T08:56:40.192Z,2.73
2019-06-15T08:59:08.816Z,6.23
2019-06-15T09:01:37.364Z,4.03
2019-06-15T09:04:06.052Z,2.37
2019-06-15T09:06:34.673Z,3.10
2019-06-15T09:09:03.395Z,6.97
2019-06-15T09:11:32.013Z,2.37
2019-06-15T09:14:00.600Z,2.63
2019-06-15T09:16:29.157Z,8.50
2019-06-15T09:18:57.767Z,3.53
2019-06-15T09:21:26.368Z,2.80
2019-06-15T09:23:54.955Z,5.83
2019-06-15T09:26:23.510Z,5.67
2019-06-15T09:28:52.096Z,6.60
2019-06-15T09:31:20.637Z,2.20
2019-06-15T09:33:49.230Z,2.93
2019-06-15T09:36:17.853Z,3.40
2019-06-15T09:38:46.437Z,3.73
2019-06-15T09:41:14.998Z,5.17
2019-06-15T09:43:43.582Z,5.70
2019-06-15T09:46:12.121Z,7.90
2019-06-15T09:48:40.718Z,4.67
2019-06-15T09:51:09.343Z,3.97
2019-06-15T09:53:37.917Z,5.97
2019-06-15T09:56:06.609Z,3.07
2019-06-15T09:58:35.204Z,5.53
2019-06-15T10:01:03.898Z,3.90
2019-06-15T10:03:32.599Z,4.67
2019-06-15T10:06:01.210Z,2.50
2019-06-15T10:08:29.784Z,4.40
2019-06-15T10:10:58.416Z,5.07
2019-06-15T10:13:26.984Z,2.30
2019-06-15T10:15:55.700Z,5.17
2019-06-15T10:18:24.288Z,2.97
2019-06-15T10:20:52.934Z,4.77
2019-06-15T10:23:21.549Z,4.33
2019-06-15T10:25:50.509Z,1.93
2019-06-15T10:28:19.450Z,5.50
2019-06-15T10:30:48.000Z,2.47
2019-06-15T10:33:16.580Z,2.20
2019-06-15T10:35:45.170Z,4.67
2019-06-15T10:38:13.718Z,2.20
2019-06-15T10:40:42.317Z,4.50
2019-06-15T10:43:10.952Z,5.03
2019-06-15T10:45:39.516Z,3.60
2019-06-15T10:48:08.133Z,3.60
2019-06-15T10:50:36.754Z,6.17
2019-06-15T10:53:05.371Z,7.10
2019-06-15T10:55:34.017Z,2.40
2019-06-15T10:58:02.639Z,3.03
2019-06-15T11:00:31.356Z,3.40
2019-06-15T11:02:59.904Z,2.90
2019-06-15T11:05:28.558Z,5.93
2019-06-15T11:07:57.112Z,4.37
2019-06-15T11:10:37.738Z,3.67
2019-06-15T11:13:06.424Z,3.70
2019-06-15T11:15:35.479Z,5.10
2019-06-15T11:18:04.699Z,2.27
2019-06-15T11:20:33.291Z,2.70
2019-06-15T11:23:01.844Z,2.43
2019-06-15T11:25:30.428Z,3.90
2019-06-15T11:27:59.000Z,5.23
2019-06-15T11:30:27.554Z,3.60
2019-06-15T11:32:56.139Z,5.73
2019-06-15T11:35:24.730Z,2.30
2019-06-15T11:37:53.376Z,14.67
2019-06-15T11:40:22.064Z,4.80
2019-06-15T11:42:50.708Z,4.73
2019-06-15T11:45:19.414Z,3.17
2019-06-15T11:47:48.062Z,3.13
2019-06-15T11:50:16.752Z,2.40
2019-06-15T11:52:45.333Z,2.90
2019-06-15T11:55:13.986Z,5.47
2019-06-15T11:57:42.528Z,4.03
2019-06-15T12:00:11.721Z,3.03
2019-06-15T12:02:40.369Z,2.73
2019-06-15T12:05:09.365Z,4.50
2019-06-15T12:07:38.086Z,5.17
2019-06-15T12:10:07.376Z,5.23
2019-06-15T12:12:35.954Z,4.33
2019-06-15T12:15:06.537Z,8.97
2019-06-15T12:17:35.229Z,2.43
2019-06-15T12:20:07.234Z,6.83
2019-06-15T12:22:36.490Z,5.60
2019-06-15T12:25:05.887Z,7.10
2019-06-15T12:27:34.430Z,4.63
2019-06-15T12:30:04.987Z,5.73
2019-06-15T12:32:33.539Z,3.83
2019-06-15T12:35:02.085Z,2.20
2019-06-15T12:37:30.657Z,6.37
2019-06-15T12:39:59.242Z,3.60
2019-06-15T12:42:27.789Z,10.67
2019-06-15T12:44:56.331Z,7.13
2019-06-15T12:47:24.972Z,2.55
2019-06-15T12:49:53.467Z,3.10
2019-06-15T12:52:22.054Z,1.70
2019-06-15T12:54:50.974Z,2.73
2019-06-15T12:57:19.624Z,3.57
2019-06-15T12:59:48.649Z,2.63
2019-06-15T13:02:17.489Z,4.33
2019-06-15T13:04:46.196Z,3.00
2019-06-15T13:07:14.777Z,2.47
2019-06-15T13:09:43.325Z,3.50
2019-06-15T13:12:12.146Z,4.13
2019-06-15T13:14:40.693Z,7.97
2019-06-15T13:17:09.312Z,2.30
2019-06-15T13:19:37.904Z,7.07
2019-06-15T13:22:06.587Z,3.60
2019-06-15T13:24:35.219Z,6.60
2019-06-15T13:27:03.841Z,2.40
2019-06-15T13:29:32.587Z,2.50
2019-06-15T13:32:01.256Z,2.30
2019-06-15T13:34:29.821Z,7.20
2019-06-15T13:36:58.375Z,7.10
2019-06-15T13:39:27.013Z,4.90
2019-06-15T13:41:55.567Z,2.33
2019-06-15T13:44:24.227Z,3.50
2019-06-15T13:46:52.776Z,3.00
2019-06-15T13:49:21.426Z,3.07
2019-06-15T13:51:49.976Z,2.00
2019-06-15T13:54:18.563Z,4.70
2019-06-15T13:56:47.184Z,7.03
2019-06-15T13:59:15.765Z,4.17
2019-06-15T14:01:44.313Z,6.03
2019-06-15T14:04:13.098Z,3.87
2019-06-15T14:06:41.716Z,3.70
2019-06-15T14:09:10.447Z,8.77
2019-06-15T14:11:39.029Z,3.47
2019-06-15T14:14:07.730Z,2.70
2019-06-15T14:16:36.317Z,4.20
2019-06-15T14:19:04.970Z,3.70
2019-06-15T14:21:33.691Z,4.93
2019-06-15T14:24:02.497Z,2.47
2019-06-15T14:26:31.132Z,3.43
2019-06-15T14:28:59.704Z,6.70
2019-06-15T14:31:28.255Z,7.47
2019-06-15T14:34:00.514Z,3.03
2019-06-15T14:36:29.343Z,4.83
2019-06-15T14:38:58.185Z,5.93
2019-06-15T14:41:26.815Z,5.57
2019-06-15T14:43:55.550Z,4.57
2019-06-15T14:46:24.129Z,5.30
2019-06-15T14:48:52.717Z,7.60
2019-06-15T14:51:21.357Z,3.37
2019-06-15T14:53:55.306Z,3.60
2019-06-15T14:56:21.941Z,4.00
2019-06-15T14:58:50.848Z,9.07
2019-06-15T15:01:19.404Z,2.47
2019-06-15T15:03:47.976Z,7.13
2019-06-15T15:06:17.273Z,6.20
2019-06-15T15:08:47.094Z,5.73
2019-06-15T15:11:17.084Z,5.60
2019-06-15T15:13:47.111Z,3.13
2019-06-15T15:16:17.779Z,3.13
2019-06-15T15:18:46.578Z,4.40
2019-06-15T15:21:16.572Z,4.80
2019-06-15T15:23:46.456Z,3.50
2019-06-15T15:26:17.115Z,5.10
2019-06-15T15:28:47.301Z,5.33
2019-06-15T15:31:17.178Z,4.10
2019-06-15T15:33:47.598Z,3.00
2019-06-15T15:36:16.865Z,3.27
2019-06-15T15:38:46.802Z,4.20
2019-06-15T15:41:17.123Z,4.07
2019-06-15T15:43:46.475Z,6.03
2019-06-15T15:46:16.457Z,4.77
2019-06-15T15:48:46.944Z,4.30
2019-06-15T15:51:17.157Z,4.40
2019-06-15T15:53:46.914Z,3.90
2019-06-15T15:56:17.057Z,4.47
2019-06-15T15:58:47.193Z,5.73
2019-06-15T16:01:17.088Z,2.70
2019-06-15T16:03:47.427Z,5.70
2019-06-15T16:06:16.652Z,3.57
2019-06-15T16:08:46.995Z,4.50
2019-06-15T16:11:16.359Z,3.03
2019-06-15T16:13:46.240Z,2.70
2019-06-15T16:16:16.452Z,3.20
2019-06-15T16:18:46.915Z,4.23
2019-06-15T16:21:16.958Z,5.63
2019-06-15T16:23:47.414Z,3.60
2019-06-15T16:26:16.936Z,3.07
2019-06-15T16:28:46.330Z,5.73
2019-06-15T16:31:18.682Z,4.37
2019-06-15T16:33:46.496Z,4.27
2019-06-15T16:36:15.524Z,6.20
2019-06-15T16:38:46.775Z,8.33
2019-06-15T16:41:14.474Z,6.97
2019-06-15T16:43:43.179Z,6.50
2019-06-15T16:46:13.409Z,6.50
2019-06-15T16:48:42.026Z,9.30
2019-06-15T16:51:10.612Z,7.57
2019-06-15T16:53:39.153Z,3.30
2019-06-15T16:56:07.799Z,9.50
2019-06-15T16:58:36.450Z,6.03
2019-06-15T17:01:06.585Z,8.50
2019-06-15T17:03:36.677Z,3.50
2019-06-15T17:06:07.022Z,4.20
2019-06-15T17:08:36.810Z,4.80
2019-06-15T17:11:06.708Z,5.47
2019-06-15T17:13:37.050Z,3.90
2019-06-15T17:16:06.214Z,6.87
2019-06-15T17:18:36.470Z,5.33
2019-06-15T17:21:06.990Z,7.40
2019-06-15T17:23:35.570Z,8.07
2019-06-15T17:26:06.277Z,6.40
2019-06-15T17:28:36.751Z,6.50
2019-06-15T17:31:06.013Z,5.80
2019-06-15T17:33:38.110Z,5.40
2019-06-15T17:36:06.771Z,6.47
2019-06-15T17:38:36.882Z,13.83
2019-06-15T17:41:05.957Z,3.27
2019-06-15T17:43:36.509Z,7.13
2019-06-15T17:46:07.241Z,5.55
2019-06-15T17:48:37.061Z,5.60
2019-06-15T17:51:06.679Z,5.60
2019-06-15T17:53:36.784Z,4.80
2019-06-15T17:56:07.314Z,6.00
2019-06-15T17:58:36.961Z,5.70
2019-06-15T18:01:06.571Z,7.27
2019-06-15T18:03:49.686Z,5.47
2019-06-15T18:06:05.624Z,9.30
2019-06-15T18:08:36.929Z,6.70
2019-06-15T18:11:06.699Z,7.77
2019-06-15T18:13:36.990Z,3.80
2019-06-15T18:16:06.572Z,5.90
2019-06-15T18:18:37.081Z,4.37
2019-06-15T18:21:06.584Z,7.80
2019-06-15T18:23:36.930Z,5.80
2019-06-15T18:26:07.230Z,7.40
2019-06-15T18:28:36.281Z,5.90
2019-06-15T18:31:06.570Z,5.00
2019-06-15T18:33:36.555Z,4.80
2019-06-15T18:36:06.311Z,6.27
2019-06-15T18:38:37.098Z,7.30
2019-06-15T18:41:07.315Z,4.93
2019-06-15T18:43:36.637Z,17.83
2019-06-15T18:46:07.160Z,9.43
2019-06-15T18:48:36.212Z,9.50
2019-06-15T18:51:07.422Z,9.50
2019-06-15T18:53:38.948Z,6.60
2019-06-15T18:56:07.027Z,7.05
2019-06-15T18:58:37.233Z,7.17
2019-06-15T19:01:07.033Z,5.87
2019-06-15T19:03:37.563Z,7.07
2019-06-15T19:06:06.690Z,10.20
2019-06-15T19:08:35.452Z,9.60
2019-06-15T19:11:06.797Z,7.80
2019-06-15T19:13:35.981Z,8.83
2019-06-15T19:16:06.939Z,9.20
2019-06-15T19:18:36.971Z,9.67
2019-06-15T19:21:07.037Z,5.97
2019-06-15T19:23:36.159Z,11.20
2019-06-15T19:26:06.299Z,9.37
2019-06-15T19:28:37.117Z,12.40
2019-06-15T19:31:06.478Z,12.03
2019-06-15T19:33:37.692Z,33.97
2019-06-15T19:36:06.302Z,15.83
2019-06-15T19:38:36.217Z,54.90
2019-06-15T19:41:06.943Z,17.40
2019-06-15T19:43:36.413Z,24.63
2019-06-15T19:46:06.768Z,9.43
2019-06-15T19:48:36.920Z,13.40
2019-06-15T19:51:05.838Z,19.03
2019-06-15T19:53:36.466Z,14.53
2019-06-15T19:56:06.901Z,19.50
2019-06-15T19:58:35.124Z,18.60
2019-06-15T20:01:06.491Z,24.10
2019-06-15T20:03:36.158Z,12.90
2019-06-15T20:06:06.440Z,12.13
2019-06-15T20:08:36.169Z,18.63
2019-06-15T20:11:07.275Z,13.40
2019-06-15T20:13:37.063Z,20.90
2019-06-15T20:16:07.837Z,15.47
2019-06-15T20:18:37.535Z,18.20
2019-06-15T20:21:07.357Z,16.60
2019-06-15T20:23:37.218Z,16.50
2019-06-15T20:26:06.615Z,13.90
2019-06-15T20:28:35.666Z,15.00
2019-06-15T20:31:06.464Z,15.00
2019-06-15T20:33:37.023Z,19.60
2019-06-15T20:36:06.682Z,14.77
2019-06-15T20:38:36.342Z,13.37
2019-06-15T20:41:07.314Z,21.53
2019-06-15T20:43:36.671Z,12.37
2019-06-15T20:46:07.050Z,13.67
2019-06-15T20:48:36.329Z,10.50
2019-06-15T20:51:09.850Z,14.40
2019-06-15T20:53:36.782Z,9.83
2019-06-15T20:56:06.806Z,10.23
2019-06-15T20:58:37.268Z,12.70
2019-06-15T21:01:07.115Z,12.10
2019-06-15T21:03:36.664Z,15.70
2019-06-15T21:06:06.815Z,14.30
2019-06-15T21:08:36.459Z,10.17
2019-06-15T21:11:07.069Z,7.20
2019-06-15T21:13:37.576Z,8.40
2019-06-15T21:16:06.728Z,11.20
2019-06-15T21:18:37.181Z,9.80
2019-06-15T21:21:06.926Z,9.03
2019-06-15T21:23:37.347Z,10.77
2019-06-15T21:26:06.809Z,12.30
2019-06-15T21:28:36.790Z,19.33
2019-06-15T21:31:06.907Z,26.90
2019-06-15T21:33:36.095Z,12.10
2019-06-15T21:36:06.284Z,16.90
2019-06-15T21:38:36.142Z,15.80
2019-06-15T21:41:07.563Z,13.90
2019-06-15T21:43:36.317Z,15.37
2019-06-15T21:46:06.339Z,13.90
2019-06-15T21:48:36.499Z,15.60
2019-06-15T21:51:07.739Z,13.73
2019-06-15T21:53:36.192Z,11.57
2019-06-15T21:56:07.120Z,19.33
2019-06-15T21:58:36.702Z,14.37
2019-06-15T22:01:20.684Z,19.43
2019-06-15T22:03:49.239Z,19.23
2019-06-15T22:06:18.393Z,15.37
2019-06-15T22:08:47.114Z,16.40
2019-06-15T22:11:16.094Z,16.17
2019-06-15T22:13:46.429Z,12.40
2019-06-15T22:16:16.967Z,17.83
2019-06-15T22:18:47.502Z,14.83
2019-06-15T22:21:16.111Z,11.30
2019-06-15T22:23:47.092Z,15.20
2019-06-15T22:26:17.078Z,12.50
2019-06-15T22:28:47.063Z,7.63
2019-06-15T22:31:17.156Z,8.30
2019-06-15T22:33:47.338Z,11.60
2019-06-15T22:36:24.677Z,14.33
2019-06-15T22:38:46.568Z,7.27
2019-06-15T22:41:16.727Z,9.43
2019-06-15T22:43:46.227Z,9.53
2019-06-15T22:46:16.979Z,18.70
2019-06-15T22:48:46.976Z,4.83
2019-06-15T22:51:16.871Z,5.60
2019-06-15T22:53:47.125Z,8.77
2019-06-15T22:56:17.059Z,8.90
2019-06-15T22:58:46.263Z,8.30
2019-06-15T23:01:16.855Z,24.10
2019-06-15T23:03:46.570Z,13.27
2019-06-15T23:06:16.252Z,9.87
2019-06-15T23:08:47.145Z,8.50
2019-06-15T23:11:17.442Z,6.00
2019-06-15T23:13:46.292Z,8.87
2019-06-15T23:16:15.225Z,5.15
2019-06-15T23:18:43.773Z,4.47
2019-06-15T23:21:12.400Z,6.17
2019-06-15T23:23:40.976Z,9.97
2019-06-15T23:26:09.560Z,5.57
2019-06-15T23:28:38.160Z,4.87
2019-06-15T23:31:07.594Z,4.17
2019-06-15T23:33:36.321Z,5.17
2019-06-15T23:36:17.124Z,4.57
2019-06-15T23:38:46.424Z,5.90
2019-06-15T23:41:16.414Z,7.33
2019-06-15T23:43:46.411Z,4.77
2019-06-15T23:46:16.026Z,4.60
2019-06-15T23:48:46.862Z,5.10
2019-06-15T23:51:16.962Z,4.80
2019-06-15T23:53:46.204Z,4.50
2019-06-15T23:56:15.151Z,3.57
2019-06-15T23:58:46.201Z,3.00
